createdAt,value
2022-11-12T00:00:12.606Z,4.20
2022-11-12T00:05:32.805Z,5.23
2022-11-12T00:10:52.909Z,4.40
2022-11-12T00:16:13.116Z,4.63
2022-11-12T00:21:33.283Z,5.10
2022-11-12T00:26:53.384Z,5.00
2022-11-12T00:32:13.589Z,4.90
2022-11-12T00:37:33.681Z,5.60
2022-11-12T00:42:53.751Z,4.60
2022-11-12T00:48:14.059Z,4.20
2022-11-12T00:53:34.070Z,4.23
2022-11-12T00:58:54.251Z,3.80
2022-11-12T01:04:14.425Z,4.17
2022-11-12T01:09:34.609Z,4.00
2022-11-12T01:14:54.702Z,3.53
2022-11-12T01:20:14.798Z,3.70
2022-11-12T01:25:34.958Z,3.90
2022-11-12T01:30:55.148Z,4.40
2022-11-12T01:36:15.224Z,2.97
2022-11-12T01:41:35.388Z,4.00
2022-11-12T01:46:55.596Z,4.20
2022-11-12T01:52:15.821Z,4.00
2022-11-12T01:57:35.917Z,3.37
2022-11-12T02:02:56.161Z,3.93
2022-11-12T02:08:16.299Z,3.70
2022-11-12T02:13:36.658Z,3.97
2022-11-12T02:18:56.785Z,3.80
2022-11-12T02:24:16.966Z,4.03
2022-11-12T02:29:37.126Z,3.63
2022-11-12T02:34:57.190Z,3.20
2022-11-12T02:40:17.247Z,4.00
2022-11-12T02:45:37.343Z,3.97
2022-11-12T02:50:57.425Z,3.73
2022-11-12T02:56:17.728Z,3.17
2022-11-12T03:01:37.858Z,3.30
2022-11-12T03:06:58.093Z,3.20
2022-11-12T03:12:18.311Z,3.20
2022-11-12T03:17:38.491Z,3.13
2022-11-12T03:22:58.603Z,3.93
2022-11-12T03:28:18.885Z,2.87
2022-11-12T03:33:39.085Z,2.50
2022-11-12T03:38:59.260Z,2.93
2022-11-12T03:44:19.406Z,3.20
2022-11-12T03:49:39.412Z,3.23
2022-11-12T03:54:59.654Z,2.87
2022-11-12T04:00:19.825Z,3.20
2022-11-12T04:05:39.923Z,2.93
2022-11-12T04:11:00.110Z,2.97
2022-11-12T04:16:20.111Z,3.00
2022-11-12T04:21:40.274Z,2.80
2022-11-12T04:27:00.274Z,3.33
2022-11-12T04:32:20.326Z,2.60
2022-11-12T04:37:40.439Z,3.13
2022-11-12T04:43:00.504Z,3.10
2022-11-12T04:48:20.548Z,3.67
2022-11-12T04:53:40.692Z,3.20
2022-11-12T04:59:00.966Z,2.93
2022-11-12T05:04:21.040Z,3.07
2022-11-12T05:09:41.402Z,2.60
2022-11-12T05:15:01.479Z,2.60
2022-11-12T05:20:21.601Z,2.57
2022-11-12T05:25:41.634Z,2.87
2022-11-12T05:31:01.820Z,2.70
2022-11-12T05:36:22.010Z,3.00
2022-11-12T05:42:10.801Z,3.17
2022-11-12T05:47:22.430Z,2.50
2022-11-12T05:52:42.564Z,2.87
2022-11-12T05:58:02.783Z,2.67
2022-11-12T06:03:22.836Z,3.03
2022-11-12T06:08:43.547Z,2.57
2022-11-12T06:14:03.297Z,3.27
2022-11-12T06:19:23.534Z,2.33
2022-11-12T06:24:43.595Z,2.53
2022-11-12T06:30:03.788Z,2.70
2022-11-12T06:35:23.879Z,2.73
2022-11-12T06:40:43.972Z,2.50
2022-11-12T06:46:04.174Z,2.70
2022-11-12T06:51:24.260Z,3.20
2022-11-12T06:56:44.314Z,2.80
2022-11-12T07:02:04.335Z,2.93
2022-11-12T07:07:24.585Z,2.80
2022-11-12T07:12:49.072Z,2.43
2022-11-12T07:18:12.331Z,3.27
2022-11-12T07:23:32.624Z,2.50
2022-11-12T07:28:52.739Z,2.53
2022-11-12T07:34:12.805Z,2.30
2022-11-12T07:39:32.893Z,2.53
2022-11-12T07:44:53.093Z,2.67
2022-11-12T07:50:13.165Z,2.53
2022-11-12T07:55:33.319Z,2.60
2022-11-12T08:00:53.409Z,2.40
2022-11-12T08:06:16.760Z,3.27
2022-11-12T08:11:36.951Z,2.70
2022-11-12T08:16:57.088Z,2.27
2022-11-12T08:22:17.302Z,2.97
2022-11-12T08:27:37.393Z,2.90
2022-11-12T08:32:58.113Z,2.37
2022-11-12T08:38:18.211Z,2.50
2022-11-12T08:43:38.347Z,2.10
2022-11-12T08:48:58.546Z,2.20
2022-11-12T08:54:18.606Z,2.37
2022-11-12T08:59:38.646Z,2.37
2022-11-12T09:04:58.720Z,2.40
2022-11-12T09:10:18.925Z,2.60
2022-11-12T09:15:39.255Z,2.47
2022-11-12T09:20:59.386Z,2.10
2022-11-12T09:26:19.386Z,2.53
2022-11-12T09:31:39.592Z,2.43
2022-11-12T09:36:59.724Z,2.60
2022-11-12T09:42:19.835Z,2.47
2022-11-12T09:47:39.853Z,1.87
2022-11-12T09:53:00.083Z,2.50
2022-11-12T09:58:20.116Z,2.50
2022-11-12T10:03:40.306Z,2.60
2022-11-12T10:09:00.398Z,2.30
2022-11-12T10:14:20.581Z,2.10
2022-11-12T10:19:40.632Z,2.27
2022-11-12T10:25:00.841Z,2.47
2022-11-12T10:30:20.928Z,2.00
2022-11-12T10:35:41.229Z,2.30
2022-11-12T10:41:01.188Z,1.77
2022-11-12T10:46:21.419Z,2.20
2022-11-12T10:51:41.555Z,1.90
2022-11-12T10:57:01.636Z,2.57
2022-11-12T11:02:21.785Z,2.00
2022-11-12T11:07:41.862Z,2.30
2022-11-12T11:13:01.910Z,2.10
2022-11-12T11:18:22.222Z,2.23
2022-11-12T11:23:42.289Z,1.60
2022-11-12T11:29:02.488Z,2.13
2022-11-12T11:34:22.527Z,2.30
2022-11-12T11:39:42.816Z,2.10
2022-11-12T11:45:02.937Z,2.33
2022-11-12T11:50:23.104Z,2.20
2022-11-12T11:55:43.069Z,1.83
2022-11-12T12:01:03.272Z,2.07
2022-11-12T12:06:23.466Z,1.97
2022-11-12T12:11:43.582Z,2.10
2022-11-12T12:17:03.708Z,2.13
2022-11-12T12:22:23.880Z,2.07
2022-11-12T12:27:43.998Z,2.30
2022-11-12T12:33:04.178Z,2.10
2022-11-12T12:38:24.807Z,1.67
2022-11-12T12:43:45.220Z,2.20
2022-11-12T12:49:05.242Z,2.13
2022-11-12T12:54:25.498Z,1.80
2022-11-12T12:59:45.539Z,2.37
2022-11-12T13:05:05.774Z,1.60
2022-11-12T13:10:25.974Z,1.83
2022-11-12T13:15:45.961Z,2.33
2022-11-12T13:21:06.183Z,2.10
2022-11-12T13:26:26.332Z,2.20
2022-11-12T13:31:46.492Z,2.00
2022-11-12T13:37:06.631Z,1.90
2022-11-12T13:42:26.966Z,2.00
2022-11-12T13:47:47.058Z,1.80
2022-11-12T13:53:07.263Z,2.27
2022-11-12T13:58:27.502Z,2.10
2022-11-12T14:03:48.073Z,1.63
2022-11-12T14:09:08.053Z,1.70
2022-11-12T14:14:28.394Z,2.00
2022-11-12T14:19:48.428Z,2.67
2022-11-12T14:25:08.634Z,1.97
2022-11-12T14:30:28.795Z,2.00
2022-11-12T14:35:48.994Z,1.70
2022-11-12T14:41:10.998Z,2.50
2022-11-12T14:46:31.348Z,2.40
2022-11-12T14:51:51.764Z,2.50
2022-11-12T14:57:11.956Z,2.50
2022-11-12T15:02:51.235Z,3.53
2022-11-12T15:08:12.425Z,2.57
2022-11-12T15:13:32.549Z,2.80
2022-11-12T15:18:52.714Z,3.10
2022-11-12T15:24:12.779Z,2.60
2022-11-12T15:29:32.962Z,2.83
2022-11-12T15:34:53.263Z,2.73
2022-11-12T15:40:13.499Z,2.60
2022-11-12T15:45:34.326Z,2.40
2022-11-12T15:50:54.420Z,2.00
2022-11-12T15:56:14.688Z,2.80
2022-11-12T16:01:34.799Z,2.47
2022-11-12T16:06:55.401Z,2.50
2022-11-12T16:12:15.524Z,2.63
2022-11-12T16:17:35.686Z,3.00
2022-11-12T16:22:55.862Z,2.40
2022-11-12T16:28:16.016Z,2.30
2022-11-12T16:33:36.070Z,2.47
2022-11-12T16:38:56.173Z,2.40
2022-11-12T16:44:16.471Z,3.00
2022-11-12T16:49:38.916Z,2.67
2022-11-12T16:55:04.323Z,2.40
2022-11-12T17:00:24.894Z,2.80
2022-11-12T17:05:45.047Z,2.47
2022-11-12T17:11:05.048Z,2.50
2022-11-12T17:16:25.140Z,2.57
2022-11-12T17:21:45.240Z,2.83
2022-11-12T17:27:05.343Z,3.00
2022-11-12T17:32:25.462Z,2.57
2022-11-12T17:37:45.789Z,3.40
2022-11-12T17:43:05.616Z,2.90
2022-11-12T17:48:25.671Z,2.50
2022-11-12T17:53:45.792Z,2.57
2022-11-12T17:59:05.873Z,2.90
2022-11-12T18:04:30.592Z,3.00
2022-11-12T18:09:51.147Z,2.53
2022-11-12T18:15:11.252Z,2.90
2022-11-12T18:20:31.435Z,2.87
2022-11-12T18:25:51.537Z,2.67
2022-11-12T18:31:11.804Z,2.50
2022-11-12T18:36:31.844Z,3.17
2022-11-12T18:41:52.013Z,2.90
2022-11-12T18:47:12.123Z,2.70
2022-11-12T18:52:32.362Z,3.20
2022-11-12T18:57:52.662Z,3.13
2022-11-12T19:03:12.804Z,3.23
2022-11-12T19:08:32.901Z,3.10
2022-11-12T19:13:53.117Z,3.33
2022-11-12T19:19:13.150Z,2.77
2022-11-12T19:24:33.503Z,3.10
2022-11-12T19:29:56.275Z,3.10
2022-11-12T19:35:19.843Z,3.17
2022-11-12T19:40:39.993Z,2.90
2022-11-12T19:46:00.248Z,2.93
2022-11-12T19:51:20.386Z,2.37
2022-11-12T19:56:40.423Z,2.60
2022-11-12T20:02:00.627Z,2.80
2022-11-12T20:07:20.689Z,2.33
2022-11-12T20:12:40.674Z,2.60
2022-11-12T20:18:00.703Z,2.00
2022-11-12T20:23:20.950Z,2.50
2022-11-12T20:28:41.001Z,2.90
2022-11-12T20:34:01.289Z,2.30
2022-11-12T20:39:21.531Z,2.40
2022-11-12T20:44:41.540Z,2.47
2022-11-12T20:50:01.827Z,2.40
2022-11-12T20:55:21.968Z,2.50
2022-11-12T21:00:41.951Z,2.87
2022-11-12T21:06:02.055Z,2.20
2022-11-12T21:11:22.251Z,2.53
2022-11-12T21:16:42.332Z,2.47
2022-11-12T21:22:02.522Z,2.30
2022-11-12T21:27:22.665Z,2.00
2022-11-12T21:32:42.805Z,2.40
2022-11-12T21:38:02.949Z,2.53
2022-11-12T21:43:23.079Z,2.03
2022-11-12T21:48:43.203Z,2.50
2022-11-12T21:54:03.347Z,2.53
2022-11-12T21:59:23.442Z,2.17
2022-11-12T22:04:43.652Z,2.00
2022-11-12T22:10:03.787Z,2.20
2022-11-12T22:15:24.458Z,2.30
2022-11-12T22:20:44.629Z,2.10
2022-11-12T22:26:04.916Z,2.43
2022-11-12T22:31:25.043Z,2.53
2022-11-12T22:36:45.210Z,2.40
2022-11-12T22:42:05.274Z,2.33
2022-11-12T22:47:25.364Z,2.10
2022-11-12T22:52:49.945Z,2.47
2022-11-12T22:58:10.226Z,2.13
2022-11-12T23:03:30.607Z,2.70
2022-11-12T23:08:50.599Z,2.47
2022-11-12T23:14:10.655Z,2.10
2022-11-12T23:19:30.782Z,3.23
2022-11-12T23:24:50.986Z,2.40
2022-11-12T23:30:11.228Z,2.20
2022-11-12T23:35:31.483Z,2.20
2022-11-12T23:40:51.596Z,2.47
2022-11-12T23:46:11.642Z,2.17
2022-11-12T23:51:31.863Z,2.07
2022-11-12T23:56:51.935Z,2.50
